| time (UTC) | temp C | wind direction | speed KPH | gust KPH | rain 1hr cm | rain 24hr cm | rain mn cm | humidity % | barometer mb |
| 20260906151727 | 23 | 174 | 0.0 | 0.0 | 0.00 | 0.00 | 0.00 | 82 | 1019.3 |
| 20260906151222 | 23 | 164 | 3.2 | 3.2 | 0.00 | 0.00 | 0.00 | 82 | 1019.3 |
| 20260906150718 | 22 | 117 | 0.0 | 0.0 | 0.00 | 0.00 | 0.00 | 85 | 1019.4 |
| 20260906150213 | 23 | 135 | 0.0 | 1.6 | 0.00 | 0.00 | 0.00 | 84 | 1019.3 |
| 20260906145712 | 23 | 141 | 1.6 | 3.2 | 0.00 | 0.00 | 0.00 | 82 | 1019.2 |
| 20260906145211 | 22 | 139 | 0.0 | 0.0 | 0.00 | 0.00 | 0.00 | 84 | 1019.1 |
| 20260906144706 | 22 | 160 | 3.2 | 3.2 | 0.00 | 0.00 | 0.00 | 83 | 1019.1 |
| 20260906144202 | 22 | 126 | 0.0 | 0.0 | 0.00 | 0.00 | 0.00 | 84 | 1019.2 |
| 20260906143700 | 22 | 136 | 1.6 | 3.2 | 0.00 | 0.00 | 0.00 | 86 | 1019.2 |
| 20260906143158 | 21 | 118 | 0.0 | 0.0 | 0.00 | 0.00 | 0.00 | 86 | 1019.1 |
| 20260906142652 | 21 | 155 | 1.6 | 3.2 | 0.00 | 0.00 | 0.00 | 86 | 1019.0 |
| 20260906142147 | 22 | 146 | 1.6 | 3.2 | 0.00 | 0.00 | 0.00 | 85 | 1019.2 |
| 20260906141646 | 21 | 145 | 0.0 | 0.0 | 0.00 | 0.00 | 0.00 | 88 | 1019.2 |
| 20260906141141 | 20 | 134 | 0.0 | 0.0 | 0.00 | 0.00 | 0.00 | 91 | 1019.1 |
| 20260906140640 | 19 | 144 | 0.0 | 0.0 | 0.00 | 0.00 | 0.00 | 95 | 1019.4 |
| 20260906140135 | 18 | 132 | 0.0 | 0.0 | 0.00 | 0.00 | 0.00 | 96 | 1019.4 |
| 20260906135632 | 18 | 120 | 0.0 | 0.0 | 0.00 | 0.00 | 0.00 | 96 | 1019.3 |
| 20260906135128 | 18 | 121 | 1.6 | 3.2 | 0.00 | 0.00 | 0.00 | 96 | 1019.4 |
| 20260906134624 | 18 | 142 | 0.0 | 0.0 | 0.00 | 0.00 | 0.00 | 96 | 1019.3 |
| 20260906134119 | 18 | 126 | 0.0 | 0.0 | 0.00 | 0.00 | 0.00 | 96 | 1019.3 |
| 20260906133614 | 17 | 114 | 0.0 | 0.0 | 0.00 | 0.00 | 0.00 | 96 | 1019.4 |
| 20260906133109 | 17 | 93 | 4.8 | 6.4 | 0.00 | 0.00 | 0.00 | 96 | 1019.2 |
| 20260906132604 | 17 | 135 | 0.0 | 0.0 | 0.00 | 0.00 | 0.00 | 96 | 1019.1 |
| 20260906132059 | 17 | 135 | 0.0 | 0.0 | 0.00 | 0.00 | 0.00 | 96 | 1019.2 |
| 20260906131554 | 17 | 148 | 0.0 | 1.6 | 0.00 | 0.00 | 0.00 | 96 | 1019.2 |
| 20260906131050 | 17 | 109 | 0.0 | 0.0 | 0.00 | 0.00 | 0.00 | 96 | 1018.9 |
| 20260906130544 | 17 | 125 | 1.6 | 1.6 | 0.00 | 0.00 | 0.00 | 96 | 1019.2 |
| 20260906130039 | 17 | 107 | 0.0 | 0.0 | 0.00 | 0.00 | 0.00 | 96 | 1019.0 |
| 20260906125536 | 17 | 144 | 0.0 | 0.0 | 0.00 | 0.00 | 0.00 | 96 | 1019.0 |
| 20260906125031 | 17 | 150 | 0.0 | 0.0 | 0.00 | 0.00 | 0.00 | 96 | 1019.1 |
| 20260906124526 | 17 | 167 | 0.0 | 0.0 | 0.00 | 0.00 | 0.00 | 96 | 1019.2 |
| 20260906124021 | 17 | 169 | 0.0 | 0.0 | 0.00 | 0.00 | 0.00 | 96 | 1019.0 |
| 20260906123520 | 17 | 169 | 0.0 | 0.0 | 0.00 | 0.00 | 0.00 | 96 | 1019.0 |
| 20260906123015 | 17 | 169 | 0.0 | 0.0 | 0.00 | 0.00 | 0.00 | 96 | 1018.9 |
| 20260906122509 | 17 | 169 | 0.0 | 0.0 | 0.00 | 0.00 | 0.00 | 96 | 1018.7 |
| 20260906122006 | 17 | 169 | 0.0 | 0.0 | 0.00 | 0.00 | 0.00 | 96 | 1018.7 |
| 20260906121501 | 16 | 169 | 0.0 | 0.0 | 0.00 | 0.00 | 0.00 | 96 | 1018.7 |
| 20260906120958 | 16 | 169 | 0.0 | 0.0 | 0.00 | 0.00 | 0.00 | 96 | 1018.8 |
| 20260906120453 | 16 | 169 | 0.0 | 0.0 | 0.00 | 0.00 | 0.00 | 96 | 1018.6 |
| 20260906115949 | 16 | 169 | 0.0 | 0.0 | 0.00 | 0.00 | 0.00 | 96 | 1018.7 |
| 20260906115444 | 16 | 169 | 0.0 | 0.0 | 0.00 | 0.00 | 0.00 | 96 | 1018.6 |
| 20260906114944 | 16 | 169 | 0.0 | 0.0 | 0.00 | 0.00 | 0.00 | 96 | 1018.6 |
| 20260906114438 | 16 | 169 | 0.0 | 0.0 | 0.00 | 0.00 | 0.00 | 96 | 1018.5 |
| 20260906113935 | 16 | 169 | 0.0 | 0.0 | 0.00 | 0.00 | 0.00 | 96 | 1018.6 |
| 20260906113433 | 16 | 169 | 0.0 | 0.0 | 0.00 | 0.00 | 0.00 | 96 | 1018.7 |
| 20260906112929 | 16 | 169 | 0.0 | 0.0 | 0.00 | 0.00 | 0.00 | 96 | 1018.5 |
| 20260906112424 | 16 | 169 | 0.0 | 0.0 | 0.00 | 0.00 | 0.00 | 96 | 1018.4 |
| 20260906111920 | 16 | 170 | 0.0 | 0.0 | 0.00 | 0.00 | 0.00 | 96 | 1018.6 |
| 20260906111419 | 16 | 170 | 0.0 | 0.0 | 0.00 | 0.00 | 0.00 | 96 | 1018.8 |
| 20260906110914 | 16 | 170 | 0.0 | 0.0 | 0.00 | 0.00 | 0.00 | 96 | 1018.7 |
| 20260906110409 | 16 | 170 | 1.6 | 1.6 | 0.00 | 0.00 | 0.00 | 96 | 1018.3 |
| 20260906105909 | 16 | 148 | 0.0 | 0.0 | 0.00 | 0.00 | 0.00 | 96 | 1018.2 |
| 20260906105405 | 16 | 148 | 0.0 | 0.0 | 0.00 | 0.00 | 0.00 | 96 | 1018.1 |
| 20260906104901 | 16 | 148 | 0.0 | 0.0 | 0.00 | 0.00 | 0.00 | 96 | 1017.6 |
| 20260906104359 | 16 | 148 | 0.0 | 0.0 | 0.00 | 0.00 | 0.00 | 96 | 1017.5 |
| 20260906103858 | 16 | 148 | 0.0 | 0.0 | 0.00 | 0.00 | 0.00 | 96 | 1017.5 |
| 20260906103356 | 16 | 147 | 0.0 | 0.0 | 0.00 | 0.00 | 0.00 | 96 | 1017.5 |
| 20260906102852 | 16 | 148 | 0.0 | 0.0 | 0.00 | 0.00 | 0.00 | 96 | 1017.7 |
| 20260906102351 | 16 | 149 | 0.0 | 0.0 | 0.00 | 0.00 | 0.00 | 96 | 1017.6 |
| 20260906101846 | 16 | 149 | 0.0 | 0.0 | 0.00 | 0.00 | 0.00 | 96 | 1017.7 |
| 20260906101342 | 17 | 149 | 0.0 | 0.0 | 0.00 | 0.00 | 0.00 | 96 | 1017.6 |
| 20260906100837 | 17 | 149 | 0.0 | 0.0 | 0.00 | 0.00 | 0.00 | 96 | 1017.6 |
| 20260906100336 | 17 | 149 | 0.0 | 0.0 | 0.00 | 0.00 | 0.00 | 96 | 1017.5 |
| 20260906095831 | 17 | 149 | 0.0 | 0.0 | 0.00 | 0.00 | 0.00 | 96 | 1017.7 |
| 20260906095327 | 17 | 149 | 0.0 | 0.0 | 0.00 | 0.00 | 0.00 | 96 | 1017.4 |
| 20260906094826 | 17 | 149 | 0.0 | 0.0 | 0.00 | 0.00 | 0.00 | 96 | 1017.7 |
| 20260906094321 | 17 | 149 | 0.0 | 0.0 | 0.00 | 0.00 | 0.00 | 96 | 1017.7 |
| 20260906093817 | 17 | 149 | 0.0 | 0.0 | 0.00 | 0.00 | 0.00 | 96 | 1017.8 |
| 20260906093313 | 17 | 149 | 0.0 | 0.0 | 0.00 | 0.00 | 0.00 | 96 | 1017.9 |
| 20260906092807 | 17 | 148 | 0.0 | 0.0 | 0.00 | 0.00 | 0.00 | 96 | 1018.0 |
| 20260906092301 | 17 | 148 | 0.0 | 0.0 | 0.00 | 0.00 | 0.00 | 96 | 1017.8 |
| 20260906091757 | 17 | 149 | 0.0 | 0.0 | 0.00 | 0.00 | 0.00 | 96 | 1017.8 |
| 20260906091253 | 17 | 148 | 0.0 | 0.0 | 0.00 | 0.00 | 0.00 | 96 | 1017.6 |
| 20260906090749 | 17 | 148 | 0.0 | 0.0 | 0.00 | 0.00 | 0.00 | 96 | 1017.7 |
| 20260906090248 | 17 | 148 | 0.0 | 0.0 | 0.00 | 0.00 | 0.00 | 96 | 1017.6 |
| 20260906085748 | 17 | 148 | 0.0 | 0.0 | 0.00 | 0.00 | 0.00 | 96 | 1017.7 |
| 20260906085242 | 17 | 151 | 0.0 | 0.0 | 0.00 | 0.00 | 0.00 | 96 | 1017.7 |
| 20260906084736 | 17 | 151 | 0.0 | 0.0 | 0.00 | 0.00 | 0.00 | 96 | 1017.8 |
| 20260906084236 | 17 | 151 | 0.0 | 0.0 | 0.00 | 0.00 | 0.00 | 96 | 1017.8 |
| 20260906083731 | 17 | 151 | 0.0 | 0.0 | 0.00 | 0.00 | 0.00 | 96 | 1017.7 |
| 20260906083226 | 17 | 151 | 0.0 | 0.0 | 0.00 | 0.00 | 0.00 | 96 | 1017.6 |
| 20260906082721 | 17 | 154 | 0.0 | 0.0 | 0.00 | 0.00 | 0.00 | 96 | 1017.6 |
| 20260906082211 | 17 | 180 | 0.0 | 0.0 | 0.00 | 0.00 | 0.00 | 96 | 1017.6 |
| 20260906081707 | 17 | 180 | 0.0 | 0.0 | 0.00 | 0.00 | 0.00 | 96 | 1017.7 |
| 20260906081156 | 17 | 180 | 0.0 | 0.0 | 0.00 | 0.00 | 0.00 | 96 | 1017.7 |
| 20260906080653 | 17 | 180 | 0.0 | 0.0 | 0.00 | 0.00 | 0.00 | 96 | 1017.7 |
| 20260906080148 | 17 | 179 | 0.0 | 0.0 | 0.00 | 0.00 | 0.00 | 96 | 1017.6 |
| 20260906075642 | 17 | 180 | 0.0 | 0.0 | 0.00 | 0.00 | 0.00 | 96 | 1017.8 |
| 20260906075137 | 17 | 180 | 0.0 | 0.0 | 0.00 | 0.00 | 0.00 | 96 | 1017.7 |
| 20260906074632 | 17 | 179 | 0.0 | 0.0 | 0.00 | 0.00 | 0.00 | 96 | 1017.7 |
| 20260906074131 | 17 | 180 | 0.0 | 0.0 | 0.00 | 0.00 | 0.00 | 96 | 1017.5 |
| 20260906073626 | 18 | 180 | 0.0 | 0.0 | 0.00 | 0.00 | 0.00 | 96 | 1017.7 |
| 20260906073122 | 18 | 180 | 0.0 | 0.0 | 0.00 | 0.00 | 0.00 | 96 | 1017.7 |
| 20260906072617 | 18 | 180 | 0.0 | 0.0 | 0.00 | 0.00 | 0.00 | 96 | 1017.6 |
| 20260906072112 | 18 | 180 | 0.0 | 0.0 | 0.00 | 0.00 | 0.00 | 96 | 1017.8 |
| 20260906071608 | 18 | 180 | 0.0 | 0.0 | 0.00 | 0.00 | 0.00 | 96 | 1017.9 |
| 20260906071103 | 18 | 180 | 0.0 | 0.0 | 0.00 | 0.00 | 0.00 | 96 | 1017.9 |
| 20260906070600 | 18 | 180 | 0.0 | 0.0 | 0.00 | 0.00 | 0.00 | 96 | 1017.7 |
| 20260906070054 | 18 | 180 | 0.0 | 0.0 | 0.00 | 0.00 | 0.00 | 96 | 1017.9 |
| 20260906065554 | 18 | 180 | 0.0 | 0.0 | 0.00 | 0.00 | 0.00 | 96 | 1017.9 |
| 20260906065050 | 18 | 180 | 0.0 | 0.0 | 0.00 | 0.00 | 0.00 | 96 | 1017.9 |
| 20260906064545 | 18 | 180 | 1.6 | 1.6 | 0.00 | 0.00 | 0.00 | 96 | 1017.9 |
| 20260906064035 | 18 | 178 | 0.0 | 0.0 | 0.00 | 0.00 | 0.00 | 96 | 1017.8 |
| 20260906063530 | 18 | 178 | 0.0 | 0.0 | 0.00 | 0.00 | 0.00 | 96 | 1017.7 |
| 20260906063026 | 18 | 179 | 0.0 | 1.6 | 0.00 | 0.00 | 0.00 | 96 | 1017.9 |
| 20260906062521 | 18 | 178 | 0.0 | 1.6 | 0.00 | 0.00 | 0.00 | 96 | 1017.8 |
| 20260906062015 | 18 | 175 | 0.0 | 0.0 | 0.00 | 0.00 | 0.00 | 96 | 1017.6 |
| 20260906061511 | 18 | 175 | 0.0 | 0.0 | 0.00 | 0.00 | 0.00 | 96 | 1017.7 |
| 20260906061005 | 18 | 175 | 0.0 | 0.0 | 0.00 | 0.00 | 0.00 | 96 | 1017.9 |
| 20260906060502 | 18 | 174 | 0.0 | 0.0 | 0.00 | 0.00 | 0.00 | 96 | 1017.9 |
| 20260906055958 | 18 | 176 | 0.0 | 0.0 | 0.00 | 0.00 | 0.00 | 96 | 1018.0 |
| 20260906055454 | 18 | 176 | 0.0 | 0.0 | 0.00 | 0.00 | 0.00 | 96 | 1017.7 |
| 20260906054949 | 18 | 175 | 0.0 | 0.0 | 0.00 | 0.00 | 0.00 | 96 | 1017.8 |
| 20260906054449 | 18 | 166 | 0.0 | 0.0 | 0.00 | 0.00 | 0.00 | 96 | 1017.9 |
| 20260906053944 | 18 | 165 | 0.0 | 0.0 | 0.00 | 0.00 | 0.00 | 96 | 1017.9 |
| 20260906053441 | 18 | 165 | 0.0 | 0.0 | 0.00 | 0.00 | 0.00 | 96 | 1017.7 |
| 20260906052936 | 18 | 165 | 0.0 | 0.0 | 0.00 | 0.00 | 0.00 | 96 | 1017.7 |
| 20260906052432 | 19 | 165 | 0.0 | 0.0 | 0.00 | 0.00 | 0.00 | 96 | 1017.6 |
| 20260906051929 | 18 | 153 | 0.0 | 0.0 | 0.00 | 0.00 | 0.00 | 96 | 1017.7 |
| 20260906051424 | 19 | 148 | 0.0 | 0.0 | 0.00 | 0.00 | 0.00 | 96 | 1017.7 |
| 20260906050920 | 19 | 139 | 0.0 | 1.6 | 0.00 | 0.00 | 0.00 | 96 | 1017.5 |
| 20260906050419 | 19 | 150 | 0.0 | 0.0 | 0.00 | 0.00 | 0.00 | 96 | 1017.6 |
| 20260906045919 | 19 | 147 | 0.0 | 0.0 | 0.00 | 0.03 | 0.03 | 96 | 1017.6 |
| 20260906045418 | 19 | 91 | 1.6 | 1.6 | 0.00 | 0.03 | 0.03 | 96 | 1017.6 |
| 20260906044914 | 19 | 141 | 0.0 | 0.0 | 0.00 | 0.03 | 0.03 | 96 | 1017.8 |
| 20260906044413 | 19 | 123 | 0.0 | 0.0 | 0.00 | 0.03 | 0.03 | 96 | 1017.8 |
| 20260906043909 | 19 | 129 | 0.0 | 0.0 | 0.00 | 0.03 | 0.03 | 96 | 1017.7 |
| 20260906043405 | 19 | 132 | 0.0 | 0.0 | 0.00 | 0.03 | 0.03 | 96 | 1017.7 |
| 20260906042900 | 20 | 141 | 0.0 | 0.0 | 0.00 | 0.03 | 0.03 | 96 | 1017.5 |
| 20260906042359 | 20 | 119 | 0.0 | 0.0 | 0.00 | 0.03 | 0.03 | 96 | 1017.6 |
| 20260906041854 | 20 | 135 | 0.0 | 0.0 | 0.00 | 0.03 | 0.03 | 96 | 1017.2 |
| 20260906041350 | 20 | 140 | 0.0 | 0.0 | 0.00 | 0.03 | 0.03 | 96 | 1017.6 |
| 20260906040845 | 20 | 127 | 0.0 | 1.6 | 0.00 | 0.03 | 0.03 | 96 | 1017.5 |
| 20260906040341 | 20 | 107 | 1.6 | 1.6 | 0.00 | 0.03 | 0.03 | 96 | 1017.3 |
| 20260906035836 | 20 | 117 | 1.6 | 1.6 | 0.00 | 0.03 | 0.03 | 96 | 1017.1 |
| 20260906035331 | 20 | 134 | 0.0 | 0.0 | 0.00 | 0.03 | 0.03 | 96 | 1017.1 |
| 20260906034826 | 20 | 139 | 0.0 | 0.0 | 0.00 | 0.03 | 0.03 | 96 | 1017.3 |
| 20260906034321 | 20 | 142 | 0.0 | 0.0 | 0.00 | 0.03 | 0.03 | 96 | 1017.0 |
| 20260906033817 | 20 | 110 | 0.0 | 0.0 | 0.00 | 0.03 | 0.03 | 96 | 1016.9 |
| 20260906033316 | 20 | 111 | 0.0 | 0.0 | 0.00 | 0.03 | 0.03 | 96 | 1017.0 |
| 20260906032813 | 20 | 145 | 0.0 | 0.0 | 0.00 | 0.03 | 0.03 | 96 | 1016.8 |
| 20260906032308 | 20 | 104 | 0.0 | 0.0 | 0.00 | 0.03 | 0.03 | 96 | 1016.9 |
| 20260906031803 | 20 | 145 | 0.0 | 0.0 | 0.00 | 0.03 | 0.03 | 96 | 1016.8 |
| 20260906031259 | 20 | 101 | 0.0 | 1.6 | 0.00 | 0.03 | 0.03 | 96 | 1016.8 |
| 20260906030758 | 21 | 117 | 0.0 | 0.0 | 0.00 | 0.03 | 0.03 | 96 | 1016.7 |
| 20260906030254 | 21 | 68 | 0.0 | 1.6 | 0.00 | 0.03 | 0.03 | 95 | 1016.9 |
| 20260906025753 | 21 | 38 | 0.0 | 1.6 | 0.00 | 0.03 | 0.03 | 95 | 1016.6 |
| 20260906025248 | 21 | 59 | 0.0 | 1.6 | 0.00 | 0.03 | 0.03 | 95 | 1016.5 |
| 20260906024747 | 21 | 97 | 0.0 | 1.6 | 0.00 | 0.03 | 0.03 | 95 | 1016.5 |
| 20260906024246 | 21 | 107 | 0.0 | 1.6 | 0.00 | 0.03 | 0.03 | 95 | 1016.4 |
| 20260906023741 | 21 | 77 | 1.6 | 3.2 | 0.00 | 0.03 | 0.03 | 95 | 1016.5 |
| 20260906023237 | 21 | 102 | 1.6 | 1.6 | 0.00 | 0.03 | 0.03 | 94 | 1016.5 |
| 20260906022732 | 21 | 99 | 0.0 | 0.0 | 0.00 | 0.03 | 0.03 | 94 | 1016.5 |
| 20260906022227 | 21 | 110 | 0.0 | 0.0 | 0.00 | 0.03 | 0.03 | 94 | 1016.3 |
| 20260906021723 | 21 | 77 | 3.2 | 3.2 | 0.00 | 0.03 | 0.03 | 94 | 1016.0 |
| 20260906021222 | 21 | 114 | 0.0 | 0.0 | 0.00 | 0.03 | 0.03 | 94 | 1015.9 |
| 20260906020717 | 21 | 100 | 1.6 | 3.2 | 0.00 | 0.03 | 0.03 | 93 | 1016.0 |
| 20260906020212 | 21 | 60 | 3.2 | 4.8 | 0.00 | 0.03 | 0.03 | 94 | 1015.7 |
| 20260906015712 | 21 | 181 | 0.0 | 1.6 | 0.00 | 0.03 | 0.03 | 93 | 1015.9 |
| 20260906015205 | 21 | 157 | 0.0 | 1.6 | 0.00 | 0.03 | 0.03 | 93 | 1015.8 |
| 20260906014705 | 21 | 71 | 1.6 | 1.6 | 0.00 | 0.03 | 0.03 | 93 | 1015.5 |
| 20260906014200 | 21 | 66 | 1.6 | 1.6 | 0.00 | 0.03 | 0.03 | 93 | 1015.8 |
| 20260906013656 | 21 | 100 | 0.0 | 0.0 | 0.00 | 0.03 | 0.03 | 93 | 1015.7 |
| 20260906013151 | 21 | 82 | 0.0 | 1.6 | 0.00 | 0.03 | 0.03 | 93 | 1015.5 |
| 20260906012646 | 22 | 127 | 1.6 | 1.6 | 0.00 | 0.03 | 0.03 | 92 | 1015.4 |
| 20260906012146 | 22 | 133 | 0.0 | 1.6 | 0.00 | 0.03 | 0.03 | 92 | 1015.4 |
| 20260906011642 | 22 | 81 | 0.0 | 0.0 | 0.00 | 0.03 | 0.03 | 91 | 1015.4 |
| 20260906011142 | 22 | 124 | 0.0 | 0.0 | 0.00 | 0.03 | 0.03 | 92 | 1015.0 |
| 20260906010637 | 22 | 75 | 1.6 | 3.2 | 0.00 | 0.03 | 0.03 | 91 | 1015.4 |
| 20260906010133 | 22 | 59 | 1.6 | 3.2 | 0.00 | 0.03 | 0.03 | 91 | 1015.3 |
| 20260906005632 | 22 | 127 | 0.0 | 1.6 | 0.00 | 0.03 | 0.03 | 91 | 1015.2 |
| 20260906005127 | 22 | 93 | 0.0 | 1.6 | 0.00 | 0.03 | 0.03 | 91 | 1015.3 |
| 20260906004626 | 22 | 119 | 0.0 | 0.0 | 0.00 | 0.03 | 0.03 | 91 | 1015.1 |
| 20260906004121 | 22 | 95 | 0.0 | 1.6 | 0.00 | 0.03 | 0.03 | 90 | 1015.3 |
| 20260906003616 | 22 | 87 | 1.6 | 1.6 | 0.00 | 0.03 | 0.03 | 90 | 1015.4 |
| 20260906003112 | 22 | 50 | 3.2 | 3.2 | 0.00 | 0.03 | 0.03 | 90 | 1015.3 |
| 20260906002606 | 22 | 85 | 0.0 | 1.6 | 0.00 | 0.03 | 0.03 | 90 | 1015.6 |
| 20260906002101 | 22 | 123 | 0.0 | 1.6 | 0.00 | 0.03 | 0.03 | 91 | 1015.7 |
| 20260906001551 | 22 | 78 | 1.6 | 3.2 | 0.00 | 0.03 | 0.03 | 91 | 1015.5 |
| 20260906001051 | 22 | 137 | 0.0 | 0.0 | 0.00 | 0.03 | 0.03 | 91 | 1015.7 |
| 20260906000547 | 22 | 118 | 0.0 | 1.6 | 0.00 | 0.03 | 0.03 | 91 | 1015.7 |
| 20260906000042 | 22 | 129 | 1.6 | 1.6 | 0.00 | 0.03 | 0.03 | 90 | 1015.6 |
| 20260905235536 | 22 | 153 | 0.0 | 0.0 | 0.00 | 0.03 | 0.03 | 91 | 1015.7 |
| 20260905235031 | 22 | 152 | 1.6 | 1.6 | 0.00 | 0.03 | 0.03 | 90 | 1015.7 |
| 20260905234527 | 22 | 146 | 0.0 | 0.0 | 0.00 | 0.03 | 0.03 | 90 | 1015.6 |
| 20260905234026 | 22 | 159 | 0.0 | 0.0 | 0.00 | 0.03 | 0.03 | 90 | 1015.7 |
| 20260905233521 | 22 | 155 | 0.0 | 0.0 | 0.00 | 0.03 | 0.03 | 90 | 1015.5 |
| 20260905233021 | 22 | 157 | 0.0 | 0.0 | 0.00 | 0.03 | 0.03 | 89 | 1015.6 |
| 20260905232516 | 22 | 160 | 0.0 | 0.0 | 0.00 | 0.03 | 0.03 | 89 | 1015.3 |
| 20260905232012 | 22 | 153 | 0.0 | 0.0 | 0.00 | 0.03 | 0.03 | 90 | 1015.6 |
| 20260905231507 | 23 | 158 | 0.0 | 1.6 | 0.00 | 0.03 | 0.03 | 89 | 1015.5 |
| 20260905231003 | 23 | 196 | 0.0 | 1.6 | 0.00 | 0.03 | 0.03 | 87 | 1015.6 |
| 20260905230502 | 23 | 191 | 0.0 | 0.0 | 0.00 | 0.03 | 0.03 | 87 | 1015.8 |
| 20260905230000 | 23 | 158 | 0.0 | 0.0 | 0.00 | 0.03 | 0.03 | 85 | 1015.7 |
| 20260905225455 | 23 | 187 | 0.0 | 0.0 | 0.00 | 0.03 | 0.03 | 86 | 1015.7 |
| 20260905224950 | 24 | 181 | 0.0 | 0.0 | 0.00 | 0.03 | 0.03 | 85 | 1015.7 |
| 20260905224446 | 24 | 175 | 0.0 | 0.0 | 0.00 | 0.03 | 0.03 | 84 | 1015.7 |
| 20260905223944 | 25 | 172 | 0.0 | 0.0 | 0.00 | 0.03 | 0.03 | 83 | 1015.9 |
| 20260905223443 | 25 | 155 | 0.0 | 0.0 | 0.00 | 0.03 | 0.03 | 82 | 1015.9 |
| 20260905222938 | 25 | 191 | 1.6 | 1.6 | 0.00 | 0.03 | 0.03 | 82 | 1015.9 |
| 20260905222438 | 25 | 140 | 0.0 | 1.6 | 0.00 | 0.03 | 0.03 | 80 | 1015.8 |
| 20260905221933 | 25 | 177 | 3.2 | 3.2 | 0.00 | 0.03 | 0.03 | 80 | 1015.7 |
| 20260905221429 | 25 | 163 | 1.6 | 1.6 | 0.00 | 0.03 | 0.03 | 78 | 1015.7 |
| 20260905220926 | 25 | 94 | 3.2 | 3.2 | 0.00 | 0.03 | 0.03 | 78 | 1015.5 |
| 20260905220421 | 26 | 92 | 1.6 | 1.6 | 0.00 | 0.03 | 0.03 | 79 | 1015.7 |
| 20260905215920 | 26 | 102 | 0.0 | 1.6 | 0.00 | 0.03 | 0.03 | 77 | 1015.7 |
| 20260905215416 | 26 | 196 | 1.6 | 1.6 | 0.00 | 0.03 | 0.03 | 76 | 1015.7 |
| 20260905214912 | 26 | 174 | 0.0 | 0.0 | 0.00 | 0.03 | 0.03 | 77 | 1015.4 |
| 20260905214408 | 26 | 166 | 1.6 | 1.6 | 0.00 | 0.03 | 0.03 | 76 | 1015.5 |
| 20260905213907 | 26 | 220 | 1.6 | 1.6 | 0.00 | 0.03 | 0.03 | 77 | 1015.5 |
| 20260905213404 | 26 | 72 | 4.8 | 4.8 | 0.00 | 0.03 | 0.03 | 77 | 1015.5 |
| 20260905212859 | 25 | 87 | 4.8 | 4.8 | 0.00 | 0.03 | 0.03 | 77 | 1015.3 |
| 20260905212354 | 25 | 66 | 0.0 | 0.0 | 0.00 | 0.03 | 0.03 | 79 | 1015.5 |
| 20260905211847 | 25 | 132 | 0.0 | 0.0 | 0.00 | 0.03 | 0.03 | 80 | 1015.4 |
| 20260905211343 | 25 | 100 | 0.0 | 0.0 | 0.00 | 0.03 | 0.03 | 81 | 1015.6 |
| 20260905210839 | 25 | 89 | 3.2 | 4.8 | 0.00 | 0.03 | 0.03 | 77 | 1015.6 |
| 20260905210334 | 26 | 88 | 0.0 | 1.6 | 0.00 | 0.03 | 0.03 | 78 | 1015.5 |
| 20260905205832 | 25 | 30 | 1.6 | 3.2 | 0.00 | 0.03 | 0.03 | 80 | 1015.6 |
| 20260905205327 | 26 | 101 | 3.2 | 3.2 | 0.00 | 0.03 | 0.03 | 79 | 1015.8 |
| 20260905204826 | 26 | 83 | 1.6 | 3.2 | 0.00 | 0.03 | 0.03 | 80 | 1015.6 |
| 20260905204322 | 26 | 125 | 1.6 | 1.6 | 0.00 | 0.03 | 0.03 | 79 | 1015.7 |
| 20260905203821 | 25 | 34 | 3.2 | 4.8 | 0.00 | 0.03 | 0.03 | 82 | 1015.7 |
| 20260905203317 | 25 | 74 | 0.0 | 1.6 | 0.00 | 0.03 | 0.03 | 84 | 1015.7 |
| 20260905202812 | 25 | 120 | 0.0 | 0.0 | 0.00 | 0.03 | 0.03 | 83 | 1015.8 |
| 20260905202307 | 25 | 47 | 1.6 | 1.6 | 0.00 | 0.03 | 0.03 | 82 | 1015.8 |
| 20260905201757 | 25 | 103 | 0.0 | 0.0 | 0.00 | 0.03 | 0.03 | 83 | 1016.0 |
| 20260905201252 | 25 | 109 | 3.2 | 4.8 | 0.00 | 0.03 | 0.03 | 82 | 1015.9 |
| 20260905200747 | 25 | 28 | 4.8 | 6.4 | 0.00 | 0.03 | 0.03 | 83 | 1015.6 |
| 20260905200243 | 25 | 97 | 0.0 | 0.0 | 0.00 | 0.03 | 0.03 | 84 | 1015.7 |
| 20260905195741 | 25 | 163 | 0.0 | 0.0 | 0.00 | 0.03 | 0.03 | 84 | 1015.5 |
| 20260905195236 | 25 | 79 | 1.6 | 3.2 | 0.00 | 0.03 | 0.03 | 83 | 1015.7 |
| 20260905194731 | 25 | 135 | 0.0 | 1.6 | 0.00 | 0.03 | 0.03 | 83 | 1015.5 |
| 20260905194225 | 26 | 81 | 1.6 | 3.2 | 0.00 | 0.03 | 0.03 | 82 | 1015.4 |
| 20260905193725 | 25 | 101 | 0.0 | 0.0 | 0.00 | 0.03 | 0.03 | 85 | 1015.7 |
| 20260905193220 | 25 | 86 | 0.0 | 0.0 | 0.00 | 0.03 | 0.03 | 84 | 1015.8 |
| 20260905192715 | 26 | 96 | 6.4 | 11.3 | 0.00 | 0.03 | 0.03 | 82 | 1015.5 |
| 20260905192212 | 26 | 130 | 1.6 | 1.6 | 0.00 | 0.03 | 0.03 | 83 | 1015.6 |
| 20260905191711 | 25 | 47 | 4.8 | 4.8 | 0.00 | 0.03 | 0.03 | 82 | 1015.6 |
| 20260905191209 | 25 | 138 | 0.0 | 0.0 | 0.00 | 0.03 | 0.03 | 83 | 1015.9 |
| 20260905190708 | 25 | 118 | 0.0 | 1.6 | 0.00 | 0.03 | 0.03 | 82 | 1015.7 |
| 20260905190207 | 26 | 247 | 0.0 | 1.6 | 0.00 | 0.03 | 0.03 | 81 | 1015.7 |
| 20260905185701 | 26 | 65 | 3.2 | 4.8 | 0.00 | 0.03 | 0.03 | 82 | 1015.6 |
| 20260905185201 | 25 | 119 | 1.6 | 3.2 | 0.00 | 0.03 | 0.03 | 83 | 1015.9 |
| 20260905184700 | 26 | 131 | 0.0 | 0.0 | 0.00 | 0.03 | 0.03 | 83 | 1015.8 |
| 20260905184159 | 25 | 169 | 0.0 | 0.0 | 0.00 | 0.03 | 0.03 | 84 | 1016.0 |
| 20260905183654 | 25 | 149 | 0.0 | 1.6 | 0.00 | 0.03 | 0.03 | 85 | 1015.9 |
| 20260905183149 | 25 | 180 | 0.0 | 0.0 | 0.00 | 0.03 | 0.03 | 86 | 1015.9 |
| 20260905182648 | 25 | 86 | 0.0 | 0.0 | 0.00 | 0.03 | 0.03 | 86 | 1016.3 |
| 20260905182143 | 25 | 214 | 0.0 | 1.6 | 0.00 | 0.03 | 0.03 | 87 | 1016.3 |
| 20260905181638 | 24 | 173 | 0.0 | 0.0 | 0.00 | 0.03 | 0.03 | 89 | 1016.3 |
| 20260905181137 | 23 | 176 | 0.0 | 0.0 | 0.00 | 0.03 | 0.03 | 90 | 1016.3 |
| 20260905180632 | 23 | 68 | 3.2 | 3.2 | 0.00 | 0.03 | 0.03 | 90 | 1016.3 |
| 20260905180127 | 23 | 166 | 1.6 | 1.6 | 0.00 | 0.03 | 0.03 | 90 | 1016.3 |
| 20260905175626 | 23 | 87 | 1.6 | 3.2 | 0.00 | 0.03 | 0.03 | 90 | 1016.3 |
| 20260905175122 | 23 | 101 | 0.0 | 1.6 | 0.00 | 0.03 | 0.03 | 90 | 1016.0 |
| 20260905174617 | 23 | 134 | 0.0 | 0.0 | 0.00 | 0.03 | 0.03 | 90 | 1016.3 |
| 20260905174112 | 23 | 147 | 0.0 | 0.0 | 0.00 | 0.03 | 0.03 | 91 | 1016.1 |
| 20260905173608 | 23 | 116 | 1.6 | 1.6 | 0.00 | 0.03 | 0.03 | 91 | 1016.1 |
| 20260905173103 | 22 | 127 | 0.0 | 0.0 | 0.00 | 0.03 | 0.03 | 94 | 1016.3 |
| 20260905172602 | 22 | 159 | 0.0 | 0.0 | 0.00 | 0.03 | 0.03 | 95 | 1016.3 |
| 20260905172057 | 22 | 46 | 0.0 | 1.6 | 0.00 | 0.03 | 0.03 | 95 | 1016.5 |
| 20260905171554 | 22 | 7 | 1.6 | 3.2 | 0.00 | 0.03 | 0.03 | 95 | 1016.4 |
| 20260905171049 | 22 | 145 | 0.0 | 0.0 | 0.00 | 0.03 | 0.03 | 95 | 1016.5 |
| 20260905170546 | 22 | 121 | 0.0 | 0.0 | 0.00 | 0.03 | 0.03 | 95 | 1016.5 |
| 20260905170041 | 22 | 153 | 1.6 | 1.6 | 0.00 | 0.03 | 0.03 | 94 | 1016.5 |
| 20260905165536 | 22 | 162 | 0.0 | 0.0 | 0.00 | 0.03 | 0.03 | 95 | 1016.3 |
| 20260905165032 | 22 | 125 | 0.0 | 1.6 | 0.00 | 0.03 | 0.03 | 95 | 1016.7 |
| 20260905164526 | 22 | 102 | 1.6 | 1.6 | 0.00 | 0.03 | 0.03 | 95 | 1016.4 |
| 20260905164020 | 22 | 119 | 0.0 | 0.0 | 0.00 | 0.03 | 0.03 | 95 | 1016.7 |
| 20260905163511 | 22 | 165 | 0.0 | 0.0 | 0.00 | 0.03 | 0.03 | 96 | 1016.7 |
| 20260905163007 | 22 | 37 | 1.6 | 3.2 | 0.00 | 0.03 | 0.03 | 96 | 1016.8 |
| 20260905162502 | 22 | 131 | 0.0 | 1.6 | 0.00 | 0.03 | 0.03 | 96 | 1016.5 |
| 20260905161956 | 21 | 66 | 0.0 | 3.2 | 0.00 | 0.03 | 0.03 | 96 | 1016.5 |
| 20260905161455 | 21 | 141 | 0.0 | 0.0 | 0.00 | 0.03 | 0.03 | 96 | 1016.5 |
| 20260905160954 | 21 | 127 | 1.6 | 1.6 | 0.00 | 0.03 | 0.03 | 96 | 1016.6 |
| 20260905160448 | 21 | 133 | 0.0 | 0.0 | 0.00 | 0.03 | 0.03 | 96 | 1016.5 |
| 20260905155947 | 21 | 53 | 0.0 | 1.6 | 0.00 | 0.03 | 0.03 | 96 | 1016.4 |
| 20260905155442 | 21 | 105 | 0.0 | 0.0 | 0.00 | 0.03 | 0.03 | 96 | 1016.3 |
| 20260905154941 | 21 | 91 | 0.0 | 1.6 | 0.00 | 0.03 | 0.03 | 96 | 1016.3 |
| 20260905154436 | 21 | 357 | 1.6 | 3.2 | 0.00 | 0.03 | 0.03 | 96 | 1016.3 |
| 20260905153932 | 22 | 98 | 0.0 | 1.6 | 0.00 | 0.03 | 0.03 | 96 | 1016.0 |
| 20260905153428 | 21 | 150 | 0.0 | 0.0 | 0.00 | 0.03 | 0.03 | 96 | 1016.1 |
| 20260905152927 | 21 | 131 | 1.6 | 1.6 | 0.00 | 0.03 | 0.03 | 96 | 1016.1 |
| 20260905152427 | 21 | 118 | 0.0 | 0.0 | 0.00 | 0.03 | 0.03 | 96 | 1015.9 |